createdAt,value
2022-08-18T00:00:26.369Z,47.80
2022-08-18T00:00:59.070Z,47.78
2022-08-18T00:01:36.702Z,47.72
2022-08-18T00:02:14.106Z,47.78
2022-08-18T00:03:00.750Z,47.77
2022-08-18T00:03:56.027Z,47.86
2022-08-18T00:04:35.947Z,48.01
2022-08-18T00:05:09.948Z,47.72
2022-08-18T00:05:49.592Z,47.49
2022-08-18T00:06:21.901Z,47.54
2022-08-18T00:06:54.214Z,47.87
2022-08-18T00:07:34.031Z,47.59
2022-08-18T00:08:07.046Z,47.83
2022-08-18T00:08:39.347Z,47.86
2022-08-18T00:09:12.026Z,47.66
2022-08-18T00:09:47.985Z,47.87
2022-08-18T00:10:20.420Z,47.80
2022-08-18T00:10:52.716Z,47.93
2022-08-18T00:11:25.094Z,47.53
2022-08-18T00:12:00.576Z,47.83
2022-08-18T00:12:35.802Z,47.49
2022-08-18T00:13:08.143Z,47.71
2022-08-18T00:13:43.111Z,47.56
2022-08-18T00:14:21.356Z,47.58
2022-08-18T00:14:55.191Z,47.55
2022-08-18T00:15:30.406Z,47.63
2022-08-18T00:16:02.909Z,47.61
2022-08-18T00:16:37.895Z,47.61
2022-08-18T00:17:12.971Z,47.95
2022-08-18T00:17:45.362Z,47.64
2022-08-18T00:18:17.727Z,47.37
2022-08-18T00:18:50.195Z,47.39
2022-08-18T00:19:45.518Z,47.73
2022-08-18T00:20:21.475Z,47.64
2022-08-18T00:20:56.400Z,47.55
2022-08-18T00:21:30.245Z,47.38
2022-08-18T00:22:02.602Z,47.36
2022-08-18T00:22:37.562Z,47.61
2022-08-18T00:23:09.896Z,47.47
2022-08-18T00:23:42.222Z,47.37
2022-08-18T00:24:17.222Z,47.33
2022-08-18T00:24:52.974Z,47.56
2022-08-18T00:25:25.499Z,47.40
2022-08-18T00:26:00.546Z,47.69
2022-08-18T00:26:36.795Z,47.88
2022-08-18T00:27:10.680Z,47.47
2022-08-18T00:27:46.366Z,47.61
2022-08-18T00:28:19.520Z,47.63
2022-08-18T00:28:56.310Z,47.90
2022-08-18T00:29:31.426Z,47.95
2022-08-18T00:30:06.862Z,47.80
2022-08-18T00:30:39.311Z,47.97
2022-08-18T00:31:14.252Z,48.02
2022-08-18T00:31:49.149Z,47.66
2022-08-18T00:32:26.251Z,47.49
2022-08-18T00:32:59.918Z,47.54
2022-08-18T00:33:32.605Z,47.76
2022-08-18T00:34:06.608Z,47.85
2022-08-18T00:34:41.523Z,48.02
2022-08-18T00:35:15.782Z,47.59
2022-08-18T00:35:48.155Z,47.70
2022-08-18T00:36:23.086Z,47.78
2022-08-18T00:36:55.383Z,47.95
2022-08-18T00:37:29.392Z,47.48
2022-08-18T00:38:06.114Z,47.87
2022-08-18T00:38:38.462Z,47.73
2022-08-18T00:39:10.767Z,47.66
2022-08-18T00:39:46.528Z,47.72
2022-08-18T00:40:35.782Z,47.66
2022-08-18T00:41:10.117Z,47.84
2022-08-18T00:41:42.696Z,47.71
2022-08-18T00:42:28.930Z,47.66
2022-08-18T00:43:05.052Z,47.62
2022-08-18T00:43:47.768Z,47.59
2022-08-18T00:44:22.690Z,47.93
2022-08-18T00:44:55.782Z,47.96
2022-08-18T00:45:33.417Z,47.50
2022-08-18T00:46:10.312Z,47.62
2022-08-18T00:46:43.012Z,47.86
2022-08-18T00:47:32.805Z,47.45
2022-08-18T00:48:14.518Z,47.66
2022-08-18T00:48:48.777Z,47.73
2022-08-18T00:49:21.643Z,47.48
2022-08-18T00:49:56.670Z,47.96
2022-08-18T00:50:32.773Z,47.60
2022-08-18T00:51:09.498Z,47.42
2022-08-18T00:51:48.184Z,47.57
2022-08-18T00:52:20.725Z,47.92
2022-08-18T00:52:56.443Z,47.67
2022-08-18T00:53:36.907Z,47.88
2022-08-18T00:54:14.264Z,47.64
2022-08-18T00:54:46.958Z,47.90
2022-08-18T00:55:22.710Z,47.32
2022-08-18T00:55:55.709Z,47.73
2022-08-18T00:56:31.559Z,47.88
2022-08-18T00:57:09.125Z,47.95
2022-08-18T00:57:42.917Z,47.87
2022-08-18T00:58:22.069Z,47.90
2022-08-18T00:59:02.672Z,47.59
2022-08-18T00:59:39.082Z,47.66
2022-08-18T01:00:13.881Z,47.95
2022-08-18T01:00:50.178Z,47.55
2022-08-18T01:01:24.191Z,47.51
2022-08-18T01:02:02.894Z,47.71
2022-08-18T01:02:42.497Z,47.59
2022-08-18T01:03:16.242Z,47.50
2022-08-18T01:04:03.157Z,47.73
2022-08-18T01:04:38.150Z,47.86
2022-08-18T01:05:18.690Z,47.40
2022-08-18T01:05:56.406Z,47.61
2022-08-18T01:06:32.446Z,47.63
2022-08-18T01:07:07.755Z,47.80
2022-08-18T01:07:45.646Z,47.87
2022-08-18T01:08:28.415Z,47.88
2022-08-18T01:09:03.245Z,47.35
2022-08-18T01:09:38.414Z,47.38
2022-08-18T01:10:14.927Z,47.76
2022-08-18T01:10:47.739Z,47.90
2022-08-18T01:11:20.093Z,47.68
2022-08-18T01:11:56.519Z,47.53
2022-08-18T01:12:45.151Z,47.68
2022-08-18T01:13:21.527Z,47.59
2022-08-18T01:13:54.213Z,47.90
2022-08-18T01:14:28.685Z,47.56
2022-08-18T01:15:04.190Z,47.83
2022-08-18T01:15:37.198Z,47.51
2022-08-18T01:16:24.443Z,47.37
2022-08-18T01:17:11.972Z,47.59
2022-08-18T01:18:02.479Z,47.88
2022-08-18T01:18:49.792Z,47.66
2022-08-18T01:19:38.198Z,47.64
2022-08-18T01:20:26.595Z,47.55
2022-08-18T01:21:19.005Z,47.64
2022-08-18T01:21:57.010Z,47.89
2022-08-18T01:22:34.042Z,47.83
2022-08-18T01:23:13.068Z,47.66
2022-08-18T01:23:49.119Z,47.47
2022-08-18T01:24:44.783Z,47.88
2022-08-18T01:25:33.509Z,47.35
2022-08-18T01:26:06.567Z,47.31
2022-08-18T01:26:50.276Z,47.86
2022-08-18T01:27:22.741Z,47.66
2022-08-18T01:28:00.702Z,47.40
2022-08-18T01:28:35.834Z,47.91
2022-08-18T01:29:09.893Z,47.54
2022-08-18T01:29:44.823Z,47.33
2022-08-18T01:30:18.501Z,47.56
2022-08-18T01:30:53.358Z,47.30
2022-08-18T01:31:38.389Z,47.41
2022-08-18T01:32:12.650Z,47.54
2022-08-18T01:32:46.161Z,47.34
2022-08-18T01:33:21.922Z,47.56
2022-08-18T01:34:02.486Z,47.69
2022-08-18T01:34:37.422Z,47.37
2022-08-18T01:35:11.218Z,47.48
2022-08-18T01:35:49.378Z,47.71
2022-08-18T01:36:24.894Z,47.54
2022-08-18T01:36:57.498Z,47.81
2022-08-18T01:37:29.926Z,47.40
2022-08-18T01:38:04.847Z,47.62
2022-08-18T01:38:40.571Z,47.49
2022-08-18T01:39:16.219Z,47.42
2022-08-18T01:41:24.228Z,47.42
2022-08-18T01:41:26.293Z,47.18
2022-08-18T01:41:58.859Z,47.19
2022-08-18T01:42:31.222Z,47.39
2022-08-18T01:43:06.257Z,47.61
2022-08-18T01:43:39.183Z,47.49
2022-08-18T01:44:11.847Z,47.21
2022-08-18T01:44:48.056Z,47.70
2022-08-18T01:45:20.784Z,47.32
2022-08-18T01:45:53.254Z,47.67
2022-08-18T01:46:26.365Z,47.15
2022-08-18T01:47:01.273Z,47.11
2022-08-18T01:47:47.789Z,47.44
2022-08-18T01:48:23.465Z,47.31
2022-08-18T01:48:56.327Z,47.44
2022-08-18T01:49:29.012Z,47.53
2022-08-18T01:50:04.286Z,47.32
2022-08-18T01:50:37.773Z,47.38
2022-08-18T01:51:10.868Z,47.24
2022-08-18T01:51:45.750Z,47.34
2022-08-18T01:52:21.196Z,47.28
2022-08-18T01:52:53.899Z,47.32
2022-08-18T01:53:29.382Z,47.33
2022-08-18T01:54:04.993Z,47.39
2022-08-18T01:54:37.659Z,47.30
2022-08-18T01:55:14.721Z,47.41
2022-08-18T01:55:47.223Z,47.35
2022-08-18T01:56:19.662Z,47.42
2022-08-18T01:56:54.888Z,47.49
2022-08-18T01:57:27.703Z,47.35
2022-08-18T01:58:01.745Z,47.62
2022-08-18T01:58:38.200Z,47.18
2022-08-18T01:59:13.734Z,47.43
2022-08-18T01:59:46.183Z,47.18
2022-08-18T02:00:21.582Z,47.32
2022-08-18T02:00:54.849Z,47.37
2022-08-18T02:01:32.933Z,47.32
2022-08-18T02:02:14.146Z,47.11
2022-08-18T02:02:58.011Z,47.47
2022-08-18T02:03:39.519Z,47.66
2022-08-18T02:04:33.935Z,47.32
2022-08-18T02:05:12.564Z,47.63
2022-08-18T02:05:48.270Z,47.35
2022-08-18T02:06:32.138Z,47.18
2022-08-18T02:07:10.606Z,47.33
2022-08-18T02:07:43.063Z,47.25
2022-08-18T02:08:16.983Z,47.39
2022-08-18T02:08:53.809Z,47.73
2022-08-18T02:09:29.099Z,47.13
2022-08-18T02:10:02.181Z,47.59
2022-08-18T02:10:37.914Z,47.51
2022-08-18T02:11:10.267Z,47.58
2022-08-18T02:11:42.537Z,47.37
2022-08-18T02:12:14.987Z,47.40
2022-08-18T02:12:49.913Z,47.34
2022-08-18T02:13:22.230Z,47.37
2022-08-18T02:13:54.555Z,47.25
2022-08-18T02:14:27.302Z,47.64
2022-08-18T02:15:02.434Z,47.29
2022-08-18T02:15:35.003Z,47.50
2022-08-18T02:16:08.031Z,47.33
2022-08-18T02:16:43.043Z,47.49
2022-08-18T02:17:15.384Z,47.44
2022-08-18T02:17:48.146Z,47.35
2022-08-18T02:18:32.539Z,47.38
2022-08-18T02:19:17.102Z,47.36
2022-08-18T02:19:51.986Z,47.37
2022-08-18T02:20:24.758Z,47.47
2022-08-18T02:20:57.738Z,47.42
2022-08-18T02:21:32.699Z,47.33
2022-08-18T02:22:06.206Z,47.42
2022-08-18T02:22:38.754Z,47.16
2022-08-18T02:23:13.782Z,47.63
2022-08-18T02:23:52.189Z,47.66
2022-08-18T02:24:29.063Z,47.71
2022-08-18T02:25:04.000Z,47.15
2022-08-18T02:25:39.188Z,47.51
2022-08-18T02:26:13.631Z,47.68
2022-08-18T02:26:48.925Z,47.39
2022-08-18T02:27:21.490Z,47.20
2022-08-18T02:27:53.834Z,47.23
2022-08-18T02:28:30.751Z,47.49
2022-08-18T02:29:03.175Z,47.47
2022-08-18T02:29:36.439Z,47.61
2022-08-18T02:30:13.881Z,47.69
2022-08-18T02:30:46.240Z,47.49
2022-08-18T02:31:20.822Z,47.18
2022-08-18T02:31:56.264Z,47.59
2022-08-18T02:32:29.399Z,47.27
2022-08-18T02:33:01.985Z,47.50
2022-08-18T02:33:34.451Z,47.51
2022-08-18T02:34:09.386Z,47.35
2022-08-18T02:34:42.973Z,47.13
2022-08-18T02:35:15.333Z,47.58
2022-08-18T02:35:55.741Z,47.42
2022-08-18T02:36:28.473Z,47.32
2022-08-18T02:37:00.979Z,47.11
2022-08-18T02:37:36.155Z,47.41
2022-08-18T02:38:09.350Z,47.32
2022-08-18T02:38:45.611Z,47.68
2022-08-18T02:39:38.098Z,47.51
2022-08-18T02:40:15.221Z,47.41
2022-08-18T02:40:48.379Z,47.56
2022-08-18T02:41:24.048Z,47.47
2022-08-18T02:41:56.380Z,47.20
2022-08-18T02:42:29.021Z,47.36
2022-08-18T02:43:09.437Z,47.36
2022-08-18T02:43:42.226Z,47.36
2022-08-18T02:44:14.662Z,47.47
2022-08-18T02:44:49.581Z,47.20
2022-08-18T02:45:23.366Z,47.37
2022-08-18T02:45:55.731Z,47.66
2022-08-18T02:46:31.458Z,47.41
2022-08-18T02:47:04.476Z,47.20
2022-08-18T02:47:37.149Z,47.25
2022-08-18T02:48:12.026Z,47.59
2022-08-18T02:48:44.351Z,47.57
2022-08-18T02:49:16.707Z,47.30
2022-08-18T02:49:51.924Z,47.53
2022-08-18T02:50:25.090Z,47.62
2022-08-18T02:51:01.158Z,47.35
2022-08-18T02:51:36.294Z,47.14
2022-08-18T02:52:09.552Z,47.47
2022-08-18T02:52:41.860Z,47.54
2022-08-18T02:53:21.575Z,47.47
2022-08-18T02:53:54.313Z,47.49
2022-08-18T02:54:29.428Z,47.49
2022-08-18T02:55:04.939Z,47.44
2022-08-18T02:55:37.850Z,47.39
2022-08-18T02:56:40.099Z,47.34
2022-08-18T02:57:14.279Z,47.37
2022-08-18T02:57:50.515Z,47.15
2022-08-18T02:58:23.059Z,47.67
2022-08-18T02:58:57.170Z,47.58
2022-08-18T02:59:33.529Z,47.55
2022-08-18T03:00:07.085Z,47.57
2022-08-18T03:00:39.515Z,47.56
2022-08-18T03:01:12.026Z,47.30
2022-08-18T03:01:50.298Z,47.39
2022-08-18T03:02:23.363Z,47.13
2022-08-18T03:02:55.675Z,47.39
2022-08-18T03:03:32.762Z,47.56
2022-08-18T03:04:07.518Z,47.30
2022-08-18T03:04:40.469Z,47.30
2022-08-18T03:05:15.386Z,47.04
2022-08-18T03:05:47.673Z,47.58
2022-08-18T03:06:21.627Z,47.34
2022-08-18T03:06:56.859Z,47.25
2022-08-18T03:07:29.255Z,46.95
2022-08-18T03:08:01.659Z,47.27
2022-08-18T03:08:36.652Z,47.57
2022-08-18T03:09:10.332Z,47.04
2022-08-18T03:09:45.266Z,47.53
2022-08-18T03:10:32.565Z,46.98
2022-08-18T03:11:06.458Z,47.28
2022-08-18T03:11:48.046Z,47.30
2022-08-18T03:12:20.412Z,47.50
2022-08-18T03:12:55.153Z,47.18
2022-08-18T03:13:31.471Z,47.51
2022-08-18T03:14:11.268Z,47.11
2022-08-18T03:14:44.123Z,47.37
2022-08-18T03:15:19.672Z,47.30
2022-08-18T03:15:56.715Z,47.04
2022-08-18T03:16:33.104Z,47.15
2022-08-18T03:17:09.526Z,47.08
2022-08-18T03:17:42.030Z,46.94
2022-08-18T03:18:14.730Z,47.20
2022-08-18T03:18:48.223Z,47.09
2022-08-18T03:19:23.374Z,47.15
2022-08-18T03:20:00.993Z,47.00
2022-08-18T03:20:38.790Z,47.10
2022-08-18T03:21:13.110Z,47.12
2022-08-18T03:21:47.067Z,47.01
2022-08-18T03:22:28.327Z,47.10
2022-08-18T03:23:05.779Z,47.14
2022-08-18T03:23:42.821Z,46.94
2022-08-18T03:24:23.006Z,46.89
2022-08-18T03:24:56.216Z,47.37
2022-08-18T03:25:31.210Z,47.11
2022-08-18T03:26:06.219Z,46.88
2022-08-18T03:26:42.971Z,46.85
2022-08-18T03:27:15.369Z,47.32
2022-08-18T03:27:47.741Z,47.11
2022-08-18T03:28:23.126Z,47.01
2022-08-18T03:28:55.834Z,47.00
2022-08-18T03:29:32.296Z,46.95
2022-08-18T03:30:11.246Z,47.08
2022-08-18T03:30:43.964Z,46.79
2022-08-18T03:31:18.274Z,47.08
2022-08-18T03:31:53.499Z,47.02
2022-08-18T03:32:25.804Z,47.12
2022-08-18T03:33:01.618Z,47.08
2022-08-18T03:33:36.905Z,47.08
2022-08-18T03:34:09.653Z,46.91
2022-08-18T03:34:43.246Z,47.27
2022-08-18T03:35:25.918Z,46.71
2022-08-18T03:36:04.638Z,47.05
2022-08-18T03:36:40.002Z,46.94
2022-08-18T03:37:12.359Z,46.74
2022-08-18T03:37:47.813Z,46.67
2022-08-18T03:38:20.203Z,46.79
2022-08-18T03:38:54.546Z,47.00
2022-08-18T03:39:32.070Z,47.17
2022-08-18T03:40:09.414Z,46.94
2022-08-18T03:40:44.376Z,46.75
2022-08-18T03:41:56.860Z,46.60
2022-08-18T03:42:18.099Z,47.13
2022-08-18T03:42:53.051Z,47.17
2022-08-18T03:43:49.700Z,47.01
2022-08-18T03:44:17.773Z,46.94
2022-08-18T03:44:52.952Z,46.92
2022-08-18T03:45:28.607Z,46.82
2022-08-18T03:46:06.807Z,46.77
2022-08-18T03:46:43.672Z,47.08
2022-08-18T03:47:17.693Z,46.82
2022-08-18T03:47:53.433Z,46.99
2022-08-18T03:48:28.841Z,46.77
2022-08-18T03:49:02.190Z,46.76
2022-08-18T03:49:38.814Z,46.70
2022-08-18T03:50:14.133Z,46.69
2022-08-18T03:50:47.469Z,46.98
2022-08-18T03:51:22.828Z,47.01
2022-08-18T03:52:01.108Z,47.04
2022-08-18T03:52:33.621Z,46.73
2022-08-18T03:53:08.984Z,46.59
2022-08-18T03:53:44.386Z,46.50
2022-08-18T03:54:17.677Z,46.99
2022-08-18T03:54:54.882Z,46.65
2022-08-18T03:55:29.838Z,46.73
2022-08-18T03:56:07.363Z,46.49
2022-08-18T03:56:44.272Z,46.82
2022-08-18T03:57:16.597Z,46.82
2022-08-18T03:57:48.899Z,46.96
2022-08-18T03:58:25.106Z,47.03
2022-08-18T03:59:05.207Z,46.45
2022-08-18T03:59:38.373Z,46.74
2022-08-18T04:00:14.808Z,46.67
2022-08-18T04:00:47.527Z,46.65
2022-08-18T04:01:26.359Z,46.98
2022-08-18T04:02:02.488Z,46.54
2022-08-18T04:02:34.795Z,46.50
2022-08-18T04:03:11.315Z,46.72
2022-08-18T04:03:43.935Z,46.66
2022-08-18T04:04:22.139Z,46.97
2022-08-18T04:04:55.597Z,46.50
2022-08-18T04:05:35.314Z,46.48
2022-08-18T04:06:12.117Z,46.47
2022-08-18T04:06:50.277Z,46.99
2022-08-18T04:07:25.245Z,46.72
2022-08-18T04:07:57.604Z,46.71
2022-08-18T04:08:29.940Z,46.57
2022-08-18T04:09:07.882Z,46.77
2022-08-18T04:09:40.322Z,46.49
2022-08-18T04:10:19.299Z,46.60
2022-08-18T04:10:52.234Z,46.66
2022-08-18T04:11:28.599Z,46.65
2022-08-18T04:12:16.228Z,46.71
2022-08-18T04:12:49.461Z,46.41
2022-08-18T04:13:22.532Z,46.94
2022-08-18T04:13:57.921Z,46.45
2022-08-18T04:14:31.306Z,46.83
2022-08-18T04:15:06.560Z,46.46
2022-08-18T04:15:38.933Z,46.55
2022-08-18T04:16:11.343Z,46.84
2022-08-18T04:16:49.376Z,46.75
2022-08-18T04:17:25.111Z,47.00
2022-08-18T04:18:04.572Z,46.51
2022-08-18T04:18:37.266Z,46.99
2022-08-18T04:19:13.498Z,46.43
2022-08-18T04:19:48.683Z,46.81
2022-08-18T04:20:21.834Z,46.65
2022-08-18T04:20:59.360Z,46.71
2022-08-18T04:21:39.501Z,46.89
2022-08-18T04:22:18.356Z,46.89
2022-08-18T04:22:53.793Z,46.85
2022-08-18T04:23:28.742Z,46.62
2022-08-18T04:24:05.433Z,46.88
2022-08-18T04:24:40.383Z,46.77
2022-08-18T04:25:13.784Z,46.48
2022-08-18T04:25:46.138Z,46.60
2022-08-18T04:26:21.895Z,47.00
2022-08-18T04:26:58.232Z,46.71
2022-08-18T04:27:30.606Z,46.79
2022-08-18T04:28:08.428Z,46.82
2022-08-18T04:28:41.374Z,46.91
2022-08-18T04:29:14.778Z,46.82
2022-08-18T04:29:49.733Z,47.03
2022-08-18T04:30:22.159Z,46.85
2022-08-18T04:30:55.183Z,46.59
2022-08-18T04:31:30.230Z,46.58
2022-08-18T04:32:04.911Z,46.53
2022-08-18T04:32:40.006Z,46.86
2022-08-18T04:33:12.343Z,46.72
2022-08-18T04:33:44.711Z,46.86
2022-08-18T04:34:20.681Z,46.92
2022-08-18T04:34:53.122Z,46.72
2022-08-18T04:35:29.210Z,46.55
2022-08-18T04:36:11.715Z,46.88
2022-08-18T04:36:44.338Z,46.89
2022-08-18T04:37:20.702Z,46.70
2022-08-18T04:37:53.192Z,46.99
2022-08-18T04:38:25.949Z,46.72
2022-08-18T04:38:58.892Z,46.89
2022-08-18T04:39:33.951Z,46.58
2022-08-18T04:40:07.835Z,46.77
2022-08-18T04:40:41.614Z,46.94
2022-08-18T04:41:17.209Z,46.93
2022-08-18T04:41:49.641Z,46.72
2022-08-18T04:42:27.212Z,46.72
2022-08-18T04:42:59.536Z,46.59
2022-08-18T04:43:32.125Z,46.62
2022-08-18T04:44:07.435Z,46.94
2022-08-18T04:44:42.439Z,46.46
2022-08-18T04:45:14.772Z,46.68
2022-08-18T04:45:47.255Z,46.70
2022-08-18T04:46:24.013Z,47.01
2022-08-18T04:46:56.822Z,46.74
2022-08-18T04:47:31.782Z,46.78
2022-08-18T04:48:04.838Z,46.71
2022-08-18T04:48:40.105Z,46.72
2022-08-18T04:49:15.075Z,46.65
2022-08-18T04:49:47.492Z,46.75
2022-08-18T04:50:19.984Z,46.63
2022-08-18T04:50:52.319Z,46.82
2022-08-18T04:52:22.474Z,46.67
2022-08-18T04:52:40.052Z,47.03
2022-08-18T04:53:28.780Z,46.66
2022-08-18T04:54:01.283Z,47.01
2022-08-18T04:54:38.324Z,46.92
2022-08-18T04:55:14.086Z,46.83
2022-08-18T04:55:51.841Z,46.87
2022-08-18T04:56:27.755Z,46.66
2022-08-18T04:57:02.678Z,46.75
2022-08-18T04:57:37.646Z,46.77
2022-08-18T04:58:12.600Z,47.14
2022-08-18T04:58:44.962Z,47.16
2022-08-18T04:59:17.319Z,46.89
2022-08-18T04:59:54.450Z,46.87
2022-08-18T05:00:26.809Z,46.96
2022-08-18T05:01:00.696Z,46.95
2022-08-18T05:01:39.961Z,46.64
2022-08-18T05:02:14.847Z,47.15
2022-08-18T05:02:47.398Z,46.92
2022-08-18T05:03:26.987Z,47.19
2022-08-18T05:03:59.762Z,46.97
2022-08-18T05:04:32.131Z,46.74
2022-08-18T05:05:07.611Z,46.84
2022-08-18T05:05:40.201Z,46.86
2022-08-18T05:06:12.526Z,46.60
2022-08-18T05:06:48.579Z,46.80
2022-08-18T05:07:23.115Z,46.82
2022-08-18T05:07:55.486Z,47.01
2022-08-18T05:08:31.309Z,46.76
2022-08-18T05:09:07.075Z,46.86
2022-08-18T05:09:42.731Z,46.53
2022-08-18T05:10:17.998Z,46.59
2022-08-18T05:10:53.879Z,46.90
2022-08-18T05:11:33.437Z,46.99
2022-08-18T05:12:07.167Z,46.87
2022-08-18T05:12:42.549Z,46.88
2022-08-18T05:13:18.388Z,46.92
2022-08-18T05:13:51.537Z,46.78
2022-08-18T05:14:24.855Z,47.11
2022-08-18T05:14:59.843Z,46.74
2022-08-18T05:15:52.681Z,47.06
2022-08-18T05:16:28.190Z,47.06
2022-08-18T05:17:00.628Z,46.77
2022-08-18T05:17:32.974Z,47.15
2022-08-18T05:18:08.803Z,46.86
2022-08-18T05:18:46.346Z,46.92
2022-08-18T05:19:26.545Z,46.70
2022-08-18T05:20:00.781Z,47.18
2022-08-18T05:20:34.501Z,47.20
2022-08-18T05:21:14.373Z,46.79
2022-08-18T05:21:47.091Z,47.24
2022-08-18T05:22:30.624Z,46.94
2022-08-18T05:23:06.547Z,47.32
2022-08-18T05:23:38.887Z,47.05
2022-08-18T05:24:11.338Z,47.04
2022-08-18T05:24:46.338Z,47.11
2022-08-18T05:25:18.800Z,47.37
2022-08-18T05:25:51.166Z,47.49
2022-08-18T05:26:28.062Z,47.15
2022-08-18T05:27:00.518Z,47.23
2022-08-18T05:27:33.530Z,47.15
2022-08-18T05:28:11.191Z,47.44
2022-08-18T05:28:44.515Z,47.47
2022-08-18T05:29:18.341Z,47.31
2022-08-18T05:29:54.294Z,47.34
2022-08-18T05:30:26.670Z,47.30
2022-08-18T05:31:00.441Z,47.51
2022-08-18T05:31:35.933Z,47.22
2022-08-18T05:32:08.442Z,47.35
2022-08-18T05:32:48.434Z,47.32
2022-08-18T05:33:24.526Z,47.10
2022-08-18T05:33:57.479Z,47.54
2022-08-18T05:34:32.585Z,47.50
2022-08-18T05:35:07.121Z,47.39
2022-08-18T05:35:43.858Z,47.63
2022-08-18T05:36:30.027Z,47.59
2022-08-18T05:37:11.723Z,47.75
2022-08-18T05:37:58.113Z,47.73
2022-08-18T05:38:39.302Z,47.27
2022-08-18T05:39:19.247Z,47.35
2022-08-18T05:39:57.257Z,47.61
2022-08-18T05:40:32.592Z,47.68
2022-08-18T05:41:13.960Z,47.46
2022-08-18T05:41:51.266Z,47.55
2022-08-18T05:42:28.879Z,47.47
2022-08-18T05:43:01.474Z,47.40
2022-08-18T05:43:37.703Z,47.71
2022-08-18T05:44:29.513Z,47.31
2022-08-18T05:45:04.402Z,47.49
2022-08-18T05:45:36.762Z,47.61
2022-08-18T05:46:13.265Z,47.87
2022-08-18T05:46:52.400Z,47.79
2022-08-18T05:47:26.563Z,47.75
2022-08-18T05:48:02.453Z,47.93
2022-08-18T05:48:41.190Z,47.95
2022-08-18T05:49:19.566Z,48.03
2022-08-18T05:49:53.238Z,47.93
2022-08-18T05:50:28.395Z,48.02
2022-08-18T05:51:13.475Z,48.02
2022-08-18T05:51:49.919Z,47.95
2022-08-18T05:52:26.056Z,47.62
2022-08-18T05:53:05.587Z,47.62
2022-08-18T05:54:01.123Z,47.80
2022-08-18T05:54:54.126Z,47.85
2022-08-18T05:55:47.788Z,47.63
2022-08-18T05:56:40.187Z,47.78
2022-08-18T05:57:14.878Z,48.10
2022-08-18T05:57:54.729Z,48.10
2022-08-18T05:58:33.186Z,48.06
2022-08-18T05:59:09.238Z,47.92
2022-08-18T05:59:45.732Z,48.14
2022-08-18T06:00:23.394Z,47.75
2022-08-18T06:01:06.678Z,48.11
2022-08-18T06:01:41.730Z,48.17
2022-08-18T06:02:18.887Z,48.03
2022-08-18T06:02:59.930Z,48.04
2022-08-18T06:03:45.293Z,47.94
2022-08-18T06:04:35.619Z,48.09
2022-08-18T06:05:11.974Z,47.89
2022-08-18T06:05:52.433Z,48.16
2022-08-18T06:06:29.681Z,48.33
2022-08-18T06:07:05.686Z,48.28
2022-08-18T06:07:44.823Z,47.88
2022-08-18T06:08:18.464Z,48.19
2022-08-18T06:08:53.899Z,48.08
2022-08-18T06:09:35.530Z,47.90
2022-08-18T06:10:09.889Z,48.28
2022-08-18T06:10:45.268Z,48.45
2022-08-18T06:11:22.774Z,48.24
2022-08-18T06:12:05.206Z,47.97
2022-08-18T06:12:46.616Z,47.93
2022-08-18T06:13:20.693Z,47.90
2022-08-18T06:14:00.059Z,48.19
2022-08-18T06:14:37.613Z,48.24
2022-08-18T06:15:18.222Z,48.07
2022-08-18T06:15:54.950Z,48.09
2022-08-18T06:16:36.597Z,47.90
2022-08-18T06:17:32.250Z,48.21
2022-08-18T06:18:12.626Z,48.11
2022-08-18T06:18:51.563Z,48.31
2022-08-18T06:19:33.458Z,47.83
2022-08-18T06:20:10.974Z,48.11
2022-08-18T06:21:08.110Z,48.15
2022-08-18T06:21:45.151Z,48.07
2022-08-18T06:22:26.975Z,48.08
2022-08-18T06:23:10.499Z,48.05
2022-08-18T06:23:51.368Z,48.17
2022-08-18T06:24:29.660Z,48.12
2022-08-18T06:25:07.461Z,48.17
2022-08-18T06:25:56.225Z,48.14
2022-08-18T06:26:34.841Z,48.26
2022-08-18T06:27:15.216Z,48.14
2022-08-18T06:27:56.008Z,48.48
2022-08-18T06:28:39.112Z,48.35
2022-08-18T06:29:30.899Z,48.14
2022-08-18T06:30:10.974Z,48.46
2022-08-18T06:30:51.635Z,48.26
2022-08-18T06:31:29.690Z,48.38
2022-08-18T06:32:10.340Z,48.51
2022-08-18T06:33:11.745Z,48.35
2022-08-18T06:33:50.770Z,48.16
2022-08-18T06:34:32.258Z,48.04
2022-08-18T06:35:13.802Z,48.36
2022-08-18T06:35:52.034Z,48.38
2022-08-18T06:36:36.303Z,48.47
2022-08-18T06:37:14.889Z,48.52
2022-08-18T06:38:07.983Z,48.38
2022-08-18T06:38:47.766Z,48.14
2022-08-18T06:39:28.156Z,48.21
2022-08-18T06:40:02.309Z,48.40
2022-08-18T06:40:34.783Z,48.52
2022-08-18T06:41:42.414Z,48.17
2022-08-18T06:42:09.303Z,48.61
2022-08-18T06:42:44.291Z,48.68
2022-08-18T06:43:17.702Z,48.16
2022-08-18T06:43:59.102Z,48.64
2022-08-18T06:44:36.947Z,48.38
2022-08-18T06:45:13.086Z,48.08
2022-08-18T06:45:50.546Z,48.15
2022-08-18T06:46:33.352Z,48.11
2022-08-18T06:47:13.167Z,48.30
2022-08-18T06:47:54.274Z,48.35
2022-08-18T06:48:32.977Z,48.44
2022-08-18T06:49:10.142Z,48.69
2022-08-18T06:49:46.978Z,48.57
2022-08-18T06:50:26.284Z,48.55
2022-08-18T06:51:00.978Z,48.48
2022-08-18T06:51:37.493Z,48.45
2022-08-18T06:52:30.453Z,48.53
2022-08-18T06:53:05.242Z,48.47
2022-08-18T06:53:59.263Z,48.54
2022-08-18T06:54:34.215Z,48.28
2022-08-18T06:55:08.502Z,48.55
2022-08-18T06:55:43.015Z,48.90
2022-08-18T06:56:26.975Z,48.82
2022-08-18T06:56:59.499Z,48.69
2022-08-18T06:57:36.036Z,48.86
2022-08-18T06:58:22.571Z,48.96
2022-08-18T06:58:55.427Z,48.93
2022-08-18T06:59:32.394Z,48.91
2022-08-18T07:00:09.852Z,48.83
2022-08-18T07:00:56.555Z,48.84
2022-08-18T07:01:31.864Z,48.81
2022-08-18T07:02:18.560Z,49.03
2022-08-18T07:02:56.170Z,49.00
2022-08-18T07:03:43.548Z,48.83
2022-08-18T07:04:37.463Z,48.70
2022-08-18T07:05:26.734Z,48.88
2022-08-18T07:06:01.810Z,49.04
2022-08-18T07:06:34.330Z,49.07
2022-08-18T07:07:24.073Z,49.23
2022-08-18T07:08:10.790Z,48.88
2022-08-18T07:08:47.255Z,49.18
2022-08-18T07:09:22.392Z,49.02
2022-08-18T07:09:54.906Z,48.98
2022-08-18T07:10:35.509Z,48.83
2022-08-18T07:11:18.667Z,49.05
2022-08-18T07:12:02.895Z,48.86
2022-08-18T07:12:37.875Z,49.05
2022-08-18T07:13:26.452Z,48.91
2022-08-18T07:14:17.049Z,48.67
2022-08-18T07:14:52.130Z,49.20
2022-08-18T07:15:27.944Z,48.92
2022-08-18T07:16:40.252Z,49.13
2022-08-18T07:17:17.675Z,49.23
2022-08-18T07:17:50.582Z,49.15
2022-08-18T07:18:29.029Z,49.15
2022-08-18T07:19:08.247Z,49.20
2022-08-18T07:19:41.578Z,49.09
2022-08-18T07:20:24.538Z,49.03
2022-08-18T07:20:58.817Z,49.00
2022-08-18T07:21:33.314Z,49.05
2022-08-18T07:22:10.936Z,49.18
2022-08-18T07:23:01.746Z,49.22
2022-08-18T07:23:39.157Z,48.99
2022-08-18T07:24:24.789Z,48.94
2022-08-18T07:25:04.624Z,48.93
2022-08-18T07:25:42.928Z,49.05
2022-08-18T07:26:17.462Z,49.27
2022-08-18T07:27:01.620Z,48.81
2022-08-18T07:27:49.077Z,48.98
2022-08-18T07:28:29.718Z,48.74
2022-08-18T07:29:17.254Z,48.83
2022-08-18T07:30:00.870Z,48.74
2022-08-18T07:30:36.739Z,48.74
2022-08-18T07:31:17.675Z,48.97
2022-08-18T07:31:54.803Z,48.96
2022-08-18T07:32:31.879Z,49.00
2022-08-18T07:33:14.992Z,48.82
2022-08-18T07:34:00.115Z,49.20
2022-08-18T07:34:37.422Z,48.78
2022-08-18T07:35:13.178Z,49.01
2022-08-18T07:35:49.314Z,49.05
2022-08-18T07:36:24.622Z,49.01
2022-08-18T07:37:03.878Z,49.03
2022-08-18T07:37:41.514Z,49.26
2022-08-18T07:38:41.572Z,48.90
2022-08-18T07:39:19.235Z,49.14
2022-08-18T07:39:58.434Z,49.17
2022-08-18T07:40:36.070Z,49.46
2022-08-18T07:41:20.602Z,49.58
2022-08-18T07:41:59.627Z,49.33
2022-08-18T07:43:00.908Z,49.54
2022-08-18T07:43:38.375Z,49.34
2022-08-18T07:44:19.700Z,49.25
2022-08-18T07:44:59.669Z,49.41
2022-08-18T07:45:34.483Z,49.46
2022-08-18T07:46:15.721Z,49.47
2022-08-18T07:46:58.799Z,49.65
2022-08-18T07:47:48.767Z,49.51
2022-08-18T07:48:41.563Z,49.60
2022-08-18T07:49:22.313Z,49.32
2022-08-18T07:50:17.035Z,49.29
2022-08-18T07:51:04.146Z,49.59
2022-08-18T07:51:45.705Z,49.51
2022-08-18T07:52:44.502Z,49.18
2022-08-18T07:53:25.890Z,49.36
2022-08-18T07:54:03.735Z,49.33
2022-08-18T07:54:50.400Z,49.37
2022-08-18T07:55:30.878Z,49.46
2022-08-18T07:56:06.461Z,49.61
2022-08-18T07:56:44.165Z,49.51
2022-08-18T07:57:24.729Z,49.57
2022-08-18T07:58:00.694Z,49.69
2022-08-18T07:58:40.536Z,49.58
2022-08-18T07:59:18.671Z,49.73
2022-08-18T08:00:00.033Z,49.11